Time;durP1;ratioP1;P1;durP2;ratioP2;P2;SDS_P1;SDS_P2;PMS_P1;PMS_P2;Temp;Humidity;BMP_temperature;BMP_pressure;BME280_temperature;BME280_humidity;BME280_pressure;Samples;Min_cycle;Max_cycle;Signal;HPM_P1;HPM_P2
2022/01/12 00:01:06;;;;;;;19.27;12.70;;;;;;;1.98;72.93;95434.63;5035559;28;20442;-82
2022/01/12 00:03:34;;;;;;;12.10;7.77;;;;;;;1.93;72.51;95439.16;5035448;28;20441;-81
2022/01/12 00:06:01;;;;;;;11.63;7.10;;;;;;;1.88;72.84;95438.50;5001043;28;20778;-82
2022/01/12 00:08:29;;;;;;;11.17;7.27;;;;;;;1.88;72.43;95443.69;5035564;28;20477;-82
2022/01/12 00:10:56;;;;;;;11.23;6.30;;;;;;;1.89;72.52;95453.97;5035793;28;20512;-81
2022/01/12 00:13:25;;;;;;;8.90;6.30;;;;;;;1.92;72.20;95451.25;5035745;28;20441;-82
2022/01/12 00:15:52;;;;;;;9.43;6.20;;;;;;;1.95;72.42;95432.16;5035936;28;20429;-82
2022/01/12 00:18:20;;;;;;;12.70;7.77;;;;;;;1.98;72.53;95451.00;5035136;28;20454;-82
2022/01/12 00:20:47;;;;;;;11.93;8.60;;;;;;;2.04;72.56;95447.31;5035905;28;20446;-82
2022/01/12 00:23:15;;;;;;;18.83;10.07;;;;;;;2.06;72.86;95440.34;5035135;28;20434;-82
2022/01/12 00:25:58;;;;;;;15.97;10.23;;;;;;;2.09;72.94;95446.22;5035991;28;20430;-82
2022/01/12 00:44:35;;;;;;;19.77;10.83;;;;;;;1.45;75.70;95458.41;5030370;28;20222;-82
2022/01/12 00:47:04;;;;;;;25.93;15.10;;;;;;;1.39;75.60;95466.38;5034917;28;20525;-82
2022/01/12 00:49:31;;;;;;;38.42;18.40;;;;;;;1.37;76.16;95457.84;5000393;28;20485;-82
2022/01/12 00:51:58;;;;;;;43.03;22.17;;;;;;;1.27;76.05;95448.78;5034825;28;20191;-82
2022/01/12 00:54:26;;;;;;;43.17;21.70;;;;;;;1.31;76.83;95460.69;5035352;28;20456;-82
2022/01/12 01:40:41;;;;;;;12.25;8.32;;;;;;;1.66;75.82;95459.25;5033832;28;20496;-82
2022/01/12 01:43:17;;;;;;;13.50;8.23;;;;;;;1.70;76.04;95453.88;5033185;28;20226;-82
2022/01/12 01:53:58;;;;;;;13.40;8.35;;;;;;;1.60;75.40;95460.34;5034091;28;20529;-82
2022/01/12 01:56:26;;;;;;;20.70;11.35;;;;;;;1.55;74.90;95462.28;5033890;28;20207;-82
2022/01/12 01:58:53;;;;;;;17.38;11.15;;;;;;;1.44;75.35;95462.69;5033506;28;20642;-81
2022/01/12 02:01:21;;;;;;;19.35;11.93;;;;;;;1.34;75.33;95465.72;5033425;28;20192;-81
2022/01/12 02:03:47;;;;;;;26.35;13.35;;;;;;;1.30;75.76;95470.19;5033456;28;20661;-81
2022/01/12 02:06:17;;;;;;;13.05;9.63;;;;;;;1.15;75.36;95470.75;5033509;28;20654;-81
2022/01/12 02:08:45;;;;;;;19.55;11.50;;;;;;;1.14;75.57;95475.09;5033519;28;20657;-81
2022/01/12 02:11:12;;;;;;;23.60;12.23;;;;;;;1.11;75.62;95480.38;5033597;28;20210;-81
2022/01/12 02:13:40;;;;;;;15.93;10.05;;;;;;;1.12;75.84;95476.91;5033653;28;20195;-81
2022/01/12 02:16:07;;;;;;;19.58;11.63;;;;;;;1.20;75.81;95481.78;5033184;28;20638;-81
2022/01/12 02:19:02;;;;;;;19.92;10.85;;;;;;;1.25;75.33;95482.44;4999082;28;20202;-82
2022/01/12 02:35:43;;;;;;;11.20;7.70;;;;;;;1.34;74.48;95507.09;5033133;28;20187;-81
2022/01/12 02:40:55;;;;;;;11.70;7.72;;;;;;;1.34;74.73;95502.75;5033223;28;20553;-81
2022/01/12 02:43:39;;;;;;;9.57;6.72;;;;;;;1.19;73.97;95514.56;4998768;28;20301;-82
2022/01/12 02:53:37;;;;;;;11.50;6.80;;;;;;;0.90;74.40;95512.22;5033130;28;20326;-82
2022/01/12 02:54:22;;;;;;;10.35;7.75;;;;;;;0.96;75.44;95527.50;5035282;28;20221;-81
2022/01/12 02:56:49;;;;;;;12.10;7.88;;;;;;;1.01;75.63;95520.41;5036755;28;20219;-81
2022/01/12 02:59:16;;;;;;;15.70;9.65;;;;;;;0.99;75.54;95518.78;5002624;28;20202;-81
2022/01/12 03:02:04;;;;;;;12.95;8.88;;;;;;;1.01;75.42;95524.72;5036947;28;20211;-81
2022/01/12 03:04:31;;;;;;;14.63;9.57;;;;;;;1.10;76.09;95524.38;5036679;28;20199;-82
2022/01/12 03:07:05;;;;;;;19.52;10.80;;;;;;;1.16;75.53;95527.59;5036543;28;20187;-81
2022/01/12 03:09:36;;;;;;;12.88;8.15;;;;;;;1.18;75.18;95528.38;5037235;28;20222;-81
2022/01/12 03:12:04;;;;;;;9.40;6.90;;;;;;;1.18;74.72;95533.53;5036380;28;20199;-81
2022/01/12 03:14:30;;;;;;;11.82;6.95;;;;;;;1.11;74.74;95532.06;5002621;28;20446;-81
2022/01/12 03:16:57;;;;;;;11.55;6.57;;;;;;;1.01;74.70;95537.66;5036711;28;20198;-81
2022/01/12 03:19:24;;;;;;;10.23;7.00;;;;;;;0.96;74.87;95543.00;5036306;28;20201;-81
2022/01/12 03:21:51;;;;;;;8.13;6.70;;;;;;;0.89;75.18;95544.97;5036732;28;20199;-82
2022/01/12 03:24:18;;;;;;;10.18;6.78;;;;;;;0.90;75.11;95548.41;5036172;28;20426;-81
2022/01/12 03:26:46;;;;;;;8.57;6.38;;;;;;;0.91;75.22;95552.66;5036082;28;20203;-82
2022/01/12 03:29:16;;;;;;;9.07;6.10;;;;;;;0.90;75.57;95550.97;5001696;28;20227;-81
2022/01/12 03:31:43;;;;;;;8.07;5.47;;;;;;;0.74;74.73;95549.84;5036383;28;20492;-81
2022/01/12 03:34:22;;;;;;;8.52;6.40;;;;;;;0.67;74.48;95556.13;5036051;28;20206;-81
2022/01/12 03:37:15;;;;;;;8.35;6.10;;;;;;;0.35;75.20;95560.69;5036275;28;20278;-81
2022/01/12 03:39:41;;;;;;;8.18;6.53;;;;;;;0.28;75.48;95565.19;5036065;28;20239;-81
2022/01/12 03:42:10;;;;;;;11.55;7.43;;;;;;;0.24;75.67;95568.75;5035848;28;20212;-81
2022/01/12 03:44:37;;;;;;;11.60;8.35;;;;;;;0.09;76.53;95556.38;5001461;28;20210;-81
2022/01/12 03:47:04;;;;;;;12.52;6.68;;;;;;;0.17;77.18;95566.44;5036091;28;20191;-81
2022/01/12 03:49:31;;;;;;;15.15;9.35;;;;;;;0.20;76.88;95566.34;5035890;28;20219;-81
2022/01/12 03:51:58;;;;;;;22.42;11.05;;;;;;;0.23;77.17;95577.41;5035995;28;20198;-81
2022/01/12 04:14:36;;;;;;;13.98;7.20;;;;;;;0.26;77.14;95603.09;5035491;28;20175;-80
2022/01/12 04:17:03;;;;;;;11.35;7.22;;;;;;;0.24;77.10;95604.06;5035302;28;20200;-80
2022/01/12 04:19:30;;;;;;;12.57;7.45;;;;;;;0.25;77.42;95616.06;5035525;28;20218;-81
2022/01/12 04:22:06;;;;;;;14.95;9.68;;;;;;;0.11;76.79;95615.69;5001174;28;20207;-81
2022/01/12 04:24:35;;;;;;;15.32;9.23;;;;;;;-0.04;76.71;95615.25;5036226;28;20192;-81
2022/01/12 04:27:02;;;;;;;16.88;9.55;;;;;;;-0.20;76.64;95620.97;5017417;28;20199;-79
2022/01/12 04:29:30;;;;;;;12.75;8.35;;;;;;;-0.32;77.07;95619.59;5035303;28;20222;-84
2022/01/12 04:31:59;;;;;;;14.05;8.40;;;;;;;-0.44;77.64;95618.25;5035125;28;20275;-83
2022/01/12 04:34:26;;;;;;;16.10;9.90;;;;;;;-0.45;77.34;95628.63;5034214;28;20448;-84
2022/01/12 04:36:53;;;;;;;16.58;9.73;;;;;;;-0.40;78.02;95627.56;5035653;28;20460;-84
2022/01/12 04:39:20;;;;;;;13.80;8.70;;;;;;;-0.34;77.47;95635.13;5035118;28;20198;-84
2022/01/12 04:41:47;;;;;;;14.73;9.35;;;;;;;-0.48;78.33;95629.56;5035156;28;20195;-84
2022/01/12 04:44:13;;;;;;;14.27;9.20;;;;;;;-0.40;78.53;95632.72;5035178;28;20210;-83
2022/01/12 04:46:51;;;;;;;14.32;9.73;;;;;;;-0.34;78.19;95639.44;5035473;28;20239;-83
2022/01/12 04:49:47;;;;;;;16.27;8.40;;;;;;;-0.35;78.16;95638.59;5003443;28;20200;-84
2022/01/12 04:58:58;;;;;;;27.40;17.67;;;;;;;-0.27;77.81;95648.69;5033955;28;20620;-83
2022/01/12 05:01:27;;;;;;;34.30;18.27;;;;;;;-0.24;78.43;95646.03;5034501;28;20191;-83
2022/01/12 05:09:47;;;;;;;37.03;18.73;;;;;;;-0.12;77.80;95658.53;5034124;28;20203;-83
2022/01/12 05:15:11;;;;;;;39.90;20.52;;;;;;;-0.03;77.32;95665.97;5034280;28;20206;-83
2022/01/12 05:17:38;;;;;;;20.52;12.07;;;;;;;-0.06;76.67;95668.66;5034629;28;20614;-82
2022/01/12 05:20:06;;;;;;;12.55;9.05;;;;;;;-0.19;76.89;95672.50;4999859;28;20195;-83
2022/01/12 05:22:35;;;;;;;13.88;9.30;;;;;;;-0.22;76.84;95677.75;5034920;28;20551;-84
2022/01/12 05:25:01;;;;;;;17.40;8.93;;;;;;;-0.29;76.68;95686.53;5034417;28;20192;-83
2022/01/12 05:27:28;;;;;;;18.27;8.90;;;;;;;-0.38;77.13;95686.81;5034053;28;20202;-82
2022/01/12 05:29:55;;;;;;;15.40;8.75;;;;;;;-0.48;77.54;95685.41;5033733;28;20706;-83
2022/01/12 05:32:25;;;;;;;22.67;10.00;;;;;;;-0.53;77.54;95687.28;5034637;28;20188;-83
2022/01/12 05:34:57;;;;;;;10.85;7.13;;;;;;;-0.64;77.85;95690.16;5034092;28;20188;-80
2022/01/12 05:37:24;;;;;;;13.75;8.30;;;;;;;-0.78;77.55;95710.31;5034043;28;20286;-82
2022/01/12 05:39:52;;;;;;;10.30;7.82;;;;;;;-0.99;78.16;95706.59;5033874;28;20203;-81
2022/01/12 05:42:19;;;;;;;11.00;7.35;;;;;;;-0.98;78.70;95705.72;5033911;28;20206;-83
2022/01/12 05:44:46;;;;;;;9.35;7.50;;;;;;;0.33;100.00;95691.53;5033941;28;20199;-83
2022/01/12 05:47:30;;;;;;;26.63;11.27;;;;;;;-0.21;84.94;95705.25;5034029;28;20285;-84
2022/01/12 05:49:56;;;;;;;21.40;10.73;;;;;;;0.03;93.18;95705.38;5033974;28;20231;-84
2022/01/12 05:52:23;;;;;;;23.17;13.10;;;;;;;-0.05;81.78;95716.75;5033684;28;20222;-84
2022/01/12 05:54:52;;;;;;;26.08;15.13;;;;;;;-0.15;78.88;95717.09;5033984;28;20445;-83
2022/01/12 05:57:19;;;;;;;16.15;10.15;;;;;;;-0.16;79.58;95724.00;5034161;28;20210;-83
2022/01/12 05:59:46;;;;;;;14.23;8.65;;;;;;;-0.33;77.79;95716.75;4999827;28;20201;-84
2022/01/12 06:02:13;;;;;;;10.02;8.10;;;;;;;-0.40;77.94;95730.69;4999360;28;20205;-82
2022/01/12 06:04:41;;;;;;;12.65;8.57;;;;;;;-0.03;88.96;95721.88;5033967;28;20197;-82
2022/01/12 06:07:08;;;;;;;13.50;7.93;;;;;;;-0.28;80.08;95733.84;5033991;28;20192;-82
2022/01/12 06:09:35;;;;;;;11.80;8.05;;;;;;;-0.32;78.12;95740.78;5034316;28;20191;-83
2022/01/12 06:15:25;;;;;;;13.55;8.88;;;;;;;-0.65;77.74;95761.47;5033256;28;20563;-82
2022/01/12 06:17:52;;;;;;;13.68;8.50;;;;;;;-0.61;78.12;95775.13;5034039;28;20250;-82
2022/01/12 06:20:19;;;;;;;11.95;7.90;;;;;;;-0.82;77.90;95773.97;5033917;28;20199;-82
2022/01/12 06:22:46;;;;;;;14.25;8.68;;;;;;;-0.77;79.13;95768.69;5033456;28;20207;-82
2022/01/12 06:25:15;;;;;;;30.10;15.98;;;;;;;-0.80;79.06;95764.47;5033668;28;20199;-82
2022/01/12 06:27:50;;;;;;;25.75;12.95;;;;;;;-0.78;78.00;95777.31;5033602;28;20194;-82
2022/01/12 06:33:00;;;;;;;24.92;14.68;;;;;;;0.10;100.00;95776.53;5037657;28;20184;-82
2022/01/12 06:35:27;;;;;;;29.75;15.98;;;;;;;0.18;100.00;95775.41;5037859;28;20221;-79
2022/01/12 06:37:55;;;;;;;30.33;16.30;;;;;;;3.24;100.00;95776.41;5003420;28;20203;-80
2022/01/12 06:40:22;;;;;;;19.35;13.70;;;;;;;3.66;85.23;95798.84;5037752;28;20627;-82
2022/01/12 06:42:49;;;;;;;17.23;9.80;;;;;;;3.20;68.80;95794.78;5037727;28;20199;-83
2022/01/12 06:45:16;;;;;;;16.40;9.63;;;;;;;2.57;66.56;95794.69;5037574;28;20569;-84
2022/01/12 06:47:43;;;;;;;17.83;11.07;;;;;;;1.79;68.02;95799.38;5037119;28;20432;-82
2022/01/12 06:50:12;;;;;;;18.83;12.13;;;;;;;1.57;69.15;95799.28;5002797;28;20813;-83
2022/01/12 06:52:38;;;;;;;19.90;11.73;;;;;;;1.23;70.39;95799.63;5037352;28;20211;-83
2022/01/12 06:55:06;;;;;;;26.75;14.45;;;;;;;0.91;71.46;95805.84;5037301;28;20188;-83
2022/01/12 06:57:33;;;;;;;29.70;16.45;;;;;;;0.78;72.36;95804.53;5037282;28;20193;-83
2022/01/12 07:13:29;;;;;;;24.23;12.40;;;;;;;2.26;100.00;95800.19;5035775;28;20200;-81
2022/01/12 07:15:56;;;;;;;10.63;7.95;;;;;;;2.64;88.32;95819.47;5036379;28;20208;-81
2022/01/12 07:18:25;;;;;;;17.93;11.40;;;;;;;1.98;71.08;95817.66;5036881;28;20220;-80
2022/01/12 07:20:52;;;;;;;10.43;8.18;;;;;;;1.10;69.57;95822.41;5037188;28;20419;-80
2022/01/12 07:23:18;;;;;;;14.35;8.98;;;;;;;0.37;72.21;95819.59;5036644;28;20645;-81
2022/01/12 07:35:58;;;;;;;12.63;8.82;;;;;;;-1.26;85.92;95840.31;5036418;28;20540;-79
2022/01/12 07:38:25;;;;;;;20.73;11.23;;;;;;;-1.27;80.89;95842.91;5036414;28;20196;-81
2022/01/12 07:40:52;;;;;;;13.18;6.85;;;;;;;-1.38;80.05;95845.75;5034678;28;20224;-86
2022/01/12 07:43:19;;;;;;;11.63;7.13;;;;;;;-1.44;80.16;95851.06;5018107;28;20203;-80
2022/01/12 07:46:14;;;;;;;11.38;7.72;;;;;;;-1.45;80.85;95848.47;5023899;28;20274;-80
2022/01/12 07:48:40;;;;;;;18.50;10.27;;;;;;;-1.43;80.70;95847.59;5016485;28;20192;-80
2022/01/12 07:51:09;;;;;;;12.68;7.90;;;;;;;-1.56;80.03;95841.88;5015996;28;20445;-83
2022/01/12 07:53:36;;;;;;;12.57;8.27;;;;;;;-1.49;80.41;95847.72;5016964;28;20200;-82
2022/01/12 07:56:03;;;;;;;15.18;9.75;;;;;;;-1.37;80.84;95857.75;5016230;28;20262;-80
2022/01/12 07:58:30;;;;;;;16.67;9.23;;;;;;;-1.17;80.93;95859.84;5016226;28;20558;-82
2022/01/12 08:00:56;;;;;;;19.63;9.95;;;;;;;-1.01;79.87;95858.59;5016462;28;20227;-82
2022/01/12 08:03:23;;;;;;;11.20;7.85;;;;;;;-0.90;78.78;95866.06;5016015;28;20204;-80
2022/01/12 08:05:51;;;;;;;13.52;8.90;;;;;;;-0.88;77.87;95864.28;4981793;28;20211;-82
2022/01/12 08:08:19;;;;;;;11.43;7.80;;;;;;;-0.76;76.63;95874.31;5016336;28;20197;-82
2022/01/12 08:10:46;;;;;;;16.42;10.93;;;;;;;-0.54;76.69;95882.34;5016117;28;20200;-83
2022/01/12 08:13:13;;;;;;;16.42;9.18;;;;;;;-0.42;75.49;95887.16;5015857;28;20192;-82
2022/01/12 08:15:40;;;;;;;13.40;8.15;;;;;;;-0.54;74.62;95886.66;4981746;28;20219;-83
2022/01/12 08:18:07;;;;;;;14.43;8.82;;;;;;;-0.47;74.84;95889.03;5015910;28;20200;-83
2022/01/12 08:20:35;;;;;;;14.90;9.43;;;;;;;-0.43;75.46;95889.78;5015542;28;20697;-83
2022/01/12 08:23:01;;;;;;;16.85;8.50;;;;;;;-0.33;75.14;95891.22;5015885;28;20220;-83
2022/01/12 08:25:30;;;;;;;10.13;6.03;;;;;;;-0.31;73.78;95894.59;5015792;28;20200;-83
2022/01/12 08:27:57;;;;;;;9.35;6.63;;;;;;;-0.31;73.47;95894.59;5014669;28;20334;-83
2022/01/12 08:30:28;;;;;;;14.40;9.13;;;;;;;-0.22;73.72;95899.53;4979823;28;20209;-83
2022/01/12 08:32:57;;;;;;;9.45;7.85;;;;;;;-0.19;72.99;95902.03;5014176;28;20196;-83
2022/01/12 08:35:24;;;;;;;11.70;8.50;;;;;;;-0.26;72.91;95908.25;5014153;28;20709;-83
2022/01/12 08:37:51;;;;;;;12.98;9.43;;;;;;;-0.24;73.85;95908.22;5014514;28;20302;-83
2022/01/12 08:40:19;;;;;;;22.42;10.30;;;;;;;-0.28;73.52;95907.44;5014003;28;20208;-83
2022/01/12 08:42:48;;;;;;;14.00;7.47;;;;;;;-0.25;73.22;95909.94;5013826;28;20652;-83
2022/01/12 08:45:17;;;;;;;13.55;8.35;;;;;;;-0.24;72.98;95913.38;5013983;28;20651;-82
2022/01/12 08:47:45;;;;;;;11.57;7.70;;;;;;;-0.13;72.81;95909.59;5026387;28;20231;-83
2022/01/12 08:50:13;;;;;;;12.70;8.25;;;;;;;-0.18;72.51;95896.00;5033746;28;20299;-82
2022/01/12 08:52:44;;;;;;;9.32;7.72;;;;;;;-0.16;72.21;95898.53;5033617;28;20203;-82
2022/01/12 08:55:11;;;;;;;10.55;6.63;;;;;;;-0.16;71.91;95903.69;5033453;28;20203;-82
2022/01/12 08:57:37;;;;;;;16.90;9.63;;;;;;;-0.29;71.82;95913.47;5033368;28;20199;-83
2022/01/12 09:00:08;;;;;;;12.73;8.00;;;;;;;-0.42;71.99;95906.94;4998726;28;20203;-82
2022/01/12 09:02:35;;;;;;;9.77;7.47;;;;;;;-0.49;72.57;95905.41;5033829;28;20223;-82
2022/01/12 09:05:02;;;;;;;15.80;8.00;;;;;;;-0.60;71.98;95891.94;4998855;28;20195;-82
2022/01/12 09:07:29;;;;;;;16.80;8.30;;;;;;;-0.56;72.85;95898.72;5033715;28;20200;-82
2022/01/12 09:09:56;;;;;;;9.80;6.60;;;;;;;-0.63;72.99;95903.16;5033886;28;20677;-82
2022/01/12 09:12:23;;;;;;;16.40;10.45;;;;;;;-0.47;74.16;95888.19;5034069;28;20200;-83
2022/01/12 09:14:51;;;;;;;8.52;6.45;;;;;;;-0.26;74.17;95894.50;5033600;28;20211;-83
2022/01/12 09:17:23;;;;;;;8.02;6.25;;;;;;;-0.21;72.73;95893.50;5033350;28;20642;-83
2022/01/12 09:19:51;;;;;;;13.25;8.10;;;;;;;-0.26;72.78;95894.50;5033925;28;20200;-82
2022/01/12 09:22:18;;;;;;;15.52;8.55;;;;;;;-0.32;73.03;95893.75;5033187;28;20260;-83
2022/01/12 09:24:46;;;;;;;15.20;7.75;;;;;;;-0.35;72.41;95893.00;5033251;28;20685;-83
2022/01/12 09:27:13;;;;;;;15.65;9.30;;;;;;;-0.32;72.90;95887.75;5033303;28;20237;-83
2022/01/12 09:29:40;;;;;;;18.38;9.77;;;;;;;-0.23;73.18;95882.38;5033218;28;20208;-83
2022/01/12 09:32:07;;;;;;;19.20;10.55;;;;;;;-0.08;72.90;95886.25;5033592;28;20207;-83
2022/01/12 09:34:36;;;;;;;16.08;9.45;;;;;;;0.02;72.41;95881.72;5033072;28;20199;-83
2022/01/12 09:37:04;;;;;;;17.25;9.88;;;;;;;0.07;72.28;95875.53;4998348;28;20200;-83
2022/01/12 09:39:31;;;;;;;13.55;8.65;;;;;;;0.15;72.07;95877.88;5032638;28;20687;-82
2022/01/12 09:41:58;;;;;;;19.77;8.18;;;;;;;0.20;71.20;95879.44;5032874;28;20234;-83
2022/01/12 09:44:30;;;;;;;11.05;6.25;;;;;;;0.20;71.11;95883.75;5032868;28;20206;-83
2022/01/12 09:47:00;;;;;;;11.57;7.35;;;;;;;0.25;70.64;95879.31;5032701;28;20231;-83
2022/01/12 09:49:28;;;;;;;9.85;7.25;;;;;;;0.22;71.17;95884.56;5033131;28;20204;-83
2022/01/12 09:51:58;;;;;;;13.40;8.35;;;;;;;0.21;71.57;95881.13;5032970;28;20218;-83
2022/01/12 09:54:26;;;;;;;12.90;9.32;;;;;;;0.10;71.14;95879.75;5033014;28;20245;-83
2022/01/12 09:56:53;;;;;;;7.60;6.20;;;;;;;-0.15;71.49;95875.28;5033205;28;20227;-83
2022/01/12 09:59:21;;;;;;;9.63;5.45;;;;;;;-0.23;71.18;95877.22;5033468;28;20200;-83
2022/01/12 10:01:49;;;;;;;9.30;7.30;;;;;;;-0.15;71.18;95883.00;5032654;28;20232;-83
2022/01/12 10:04:17;;;;;;;11.80;7.60;;;;;;;-0.09;71.54;95880.25;5032007;28;20709;-83
2022/01/12 10:06:47;;;;;;;6.80;5.82;;;;;;;-0.18;71.34;95885.69;5032780;28;20209;-83
2022/01/12 10:09:16;;;;;;;10.93;7.78;;;;;;;-0.11;72.28;95876.88;5032672;28;20202;-82
2022/01/12 10:11:51;;;;;;;17.52;8.88;;;;;;;0.04;72.27;95879.94;5032758;28;20203;-83
2022/01/12 10:14:18;;;;;;;10.90;6.25;;;;;;;-0.13;71.44;95883.81;4997518;28;20195;-83
2022/01/12 10:16:54;;;;;;;24.05;10.13;;;;;;;-0.04;71.65;95885.28;5032295;28;20210;-82
2022/01/12 10:19:28;;;;;;;10.93;6.40;;;;;;;0.06;71.74;95879.00;5032624;28;20202;-83
2022/01/12 10:21:56;;;;;;;18.45;9.25;;;;;;;0.10;72.29;95893.50;5032484;28;20233;-83
2022/01/12 10:24:25;;;;;;;6.85;5.50;;;;;;;-0.06;70.89;95887.91;5032401;28;20212;-83
2022/01/12 10:26:53;;;;;;;11.30;7.10;;;;;;;-0.19;71.86;95896.03;5032394;28;20208;-83
2022/01/12 10:29:22;;;;;;;18.08;9.85;;;;;;;-0.17;72.14;95887.38;5032864;28;20226;-83
2022/01/12 10:31:52;;;;;;;12.82;6.95;;;;;;;-0.28;71.63;95891.97;5032901;28;20195;-83
2022/01/12 10:34:22;;;;;;;11.15;6.78;;;;;;;-0.27;71.79;95885.94;5032625;28;20204;-83
2022/01/12 10:36:50;;;;;;;9.63;7.65;;;;;;;-0.23;71.46;95877.22;5032375;28;20250;-83
2022/01/12 10:39:18;;;;;;;26.90;10.63;;;;;;;-0.09;72.58;95885.41;5032515;28;20196;-83
2022/01/12 10:41:59;;;;;;;13.25;7.10;;;;;;;0.03;72.61;95879.09;5032657;28;20223;-83
2022/01/12 10:44:29;;;;;;;14.40;7.20;;;;;;;0.13;71.73;95880.50;5032989;28;20206;-83
2022/01/12 10:47:14;;;;;;;15.13;8.18;;;;;;;0.20;70.49;95881.19;5033923;28;20784;-83
2022/01/12 10:49:43;;;;;;;14.50;8.13;;;;;;;0.15;70.93;95876.16;5033489;28;20205;-83
2022/01/12 10:52:11;;;;;;;11.80;8.05;;;;;;;0.08;71.27;95882.38;5033828;28;20389;-88
2022/01/12 10:54:46;;;;;;;11.43;6.68;;;;;;;0.19;70.15;95885.50;4999106;28;20210;-82
2022/01/12 10:57:21;;;;;;;12.18;6.63;;;;;;;0.20;71.24;95876.88;5015272;28;20675;-84
2022/01/12 11:00:10;;;;;;;13.82;7.30;;;;;;;0.21;70.97;95872.53;5033743;28;20188;-83
2022/01/12 11:02:40;;;;;;;15.05;6.50;;;;;;;0.19;71.40;95875.16;5033926;28;20211;-83
2022/01/12 11:05:08;;;;;;;9.98;6.20;;;;;;;0.27;71.19;95877.53;5033213;28;20188;-83
2022/01/12 11:07:35;;;;;;;8.80;6.55;;;;;;;0.31;71.19;95871.41;5033231;28;20184;-82
2022/01/12 11:10:07;;;;;;;15.75;7.88;;;;;;;0.28;69.87;95876.63;5033200;28;20204;-83
2022/01/12 11:12:36;;;;;;;13.10;8.13;;;;;;;0.24;70.43;95875.88;5033659;28;20183;-83
2022/01/12 11:15:06;;;;;;;9.70;7.20;;;;;;;0.18;71.18;95877.78;5034385;28;20197;-82
2022/01/12 11:17:33;;;;;;;8.20;5.50;;;;;;;0.12;71.17;95875.41;5036812;28;20605;-82
2022/01/12 11:23:35;;;;;;;11.95;6.63;;;;;;;-0.13;70.28;95882.97;5036796;28;20668;-83
2022/01/12 11:26:13;;;;;;;14.98;6.72;;;;;;;-0.19;70.41;95889.16;5036772;28;20192;-83
2022/01/12 11:28:41;;;;;;;11.00;6.63;;;;;;;-0.12;71.64;95879.50;5037032;28;20562;-82
2022/01/12 11:31:09;;;;;;;14.48;7.55;;;;;;;-0.06;71.14;95884.47;5037232;28;20571;-83
2022/01/12 11:33:40;;;;;;;10.13;6.03;;;;;;;-0.05;71.19;95887.03;5037578;28;20188;-82
2022/01/12 11:36:16;;;;;;;27.35;13.50;;;;;;;1.30;100.00;95868.31;5037287;28;20628;-80
2022/01/12 11:38:47;;;;;;;12.13;7.07;;;;;;;0.75;73.31;95889.88;5036536;28;20196;-83
2022/01/12 11:41:16;;;;;;;12.60;8.02;;;;;;;0.69;70.98;95890.06;5036304;28;20211;-82
2022/01/12 11:43:47;;;;;;;18.95;12.65;;;;;;;0.59;70.83;95892.09;5036238;28;20202;-82
2022/01/12 11:46:16;;;;;;;10.98;6.07;;;;;;;0.54;69.63;95899.09;5036655;28;20210;-83
2022/01/12 11:48:45;;;;;;;8.50;5.65;;;;;;;0.25;68.75;95907.69;5036654;28;20230;-83
2022/01/12 11:51:13;;;;;;;8.55;6.85;;;;;;;0.02;69.92;95898.03;5036350;28;20206;-82
2022/01/12 11:53:52;;;;;;;24.42;9.43;;;;;;;0.01;69.92;95901.50;5036034;28;20203;-83
2022/01/12 11:56:21;;;;;;;7.45;5.40;;;;;;;-0.18;70.61;95908.88;5036104;28;20191;-82
2022/01/12 11:58:58;;;;;;;7.55;5.75;;;;;;;-0.07;71.53;95904.28;5036172;28;20297;-83
2022/01/12 12:01:37;;;;;;;13.73;7.80;;;;;;;-0.04;70.98;95899.03;5002516;28;20195;-84
2022/01/12 12:04:06;;;;;;;13.75;7.60;;;;;;;0.04;70.67;95908.31;5036455;28;20195;-83
2022/01/12 12:06:33;;;;;;;6.90;5.38;;;;;;;0.10;69.65;95915.88;5036128;28;20190;-83
2022/01/12 12:12:23;;;;;;;5.05;3.97;;;;;;;-0.10;68.28;95914.69;5035275;28;20192;-84
2022/01/12 12:14:55;;;;;;;7.60;5.00;;;;;;;-0.08;69.23;95920.66;5036443;28;20566;-83
2022/01/12 12:17:24;;;;;;;9.50;6.13;;;;;;;-0.16;68.85;95922.59;5036201;28;20207;-84
2022/01/12 12:19:52;;;;;;;4.78;4.38;;;;;;;-0.33;69.21;95917.84;5036060;28;20192;-83
2022/01/12 12:22:21;;;;;;;9.13;7.10;;;;;;;-0.25;69.74;95924.56;5036074;28;20600;-84
2022/01/12 12:24:53;;;;;;;9.80;6.03;;;;;;;-0.22;69.58;95919.34;5017661;28;20191;-84
2022/01/12 12:27:23;;;;;;;12.57;5.57;;;;;;;-0.15;69.43;95916.53;5035190;28;20198;-83
2022/01/12 12:29:51;;;;;;;10.98;5.68;;;;;;;-0.08;68.61;95919.78;5036523;28;20201;-83
2022/01/12 12:32:20;;;;;;;13.40;6.45;;;;;;;-0.18;68.38;95919.22;5035705;28;20200;-84
2022/01/12 12:34:48;;;;;;;10.65;6.53;;;;;;;-0.27;68.31;95914.31;5035987;28;20192;-83
2022/01/12 12:37:17;;;;;;;7.68;5.85;;;;;;;-0.24;68.68;95919.38;5035886;28;20207;-82
2022/01/12 12:39:45;;;;;;;5.88;5.13;;;;;;;-0.24;68.23;95923.69;5035696;28;20192;-83
2022/01/12 12:42:38;;;;;;;24.13;10.65;;;;;;;0.08;74.40;95912.50;5035381;28;20228;-84
2022/01/12 12:45:08;;;;;;;13.45;8.20;;;;;;;0.16;68.53;95915.69;5036470;28;20533;-86
2022/01/12 12:47:35;;;;;;;33.75;16.30;;;;;;;0.17;67.76;95917.41;5035921;28;20229;-83
2022/01/12 12:50:06;;;;;;;31.85;14.50;;;;;;;0.22;67.99;95920.69;5035429;28;20207;-83
2022/01/12 12:52:34;;;;;;;17.88;9.48;;;;;;;0.14;67.60;95922.66;5001360;28;20666;-85
2022/01/12 12:55:05;;;;;;;7.88;5.53;;;;;;;0.12;66.94;95916.69;5035360;28;20214;-83
2022/01/12 12:57:32;;;;;;;7.07;5.40;;;;;;;0.23;67.11;95922.38;5036167;28;20199;-82
2022/01/12 13:00:11;;;;;;;10.82;6.65;;;;;;;0.23;66.86;95914.63;5035219;28;20192;-81
2022/01/12 13:02:40;;;;;;;11.93;7.88;;;;;;;0.24;67.62;95919.75;5001397;28;20231;-82
2022/01/12 13:05:09;;;;;;;5.88;4.82;;;;;;;-0.04;66.25;95919.66;5035379;28;20194;-82
2022/01/12 13:07:38;;;;;;;8.18;4.97;;;;;;;-0.05;66.78;95928.28;5034844;28;20306;-81
2022/01/12 13:10:07;;;;;;;16.80;9.05;;;;;;;0.03;66.29;95927.25;5034835;28;20187;-82
2022/01/12 13:12:38;;;;;;;17.00;10.57;;;;;;;0.14;66.49;95923.50;5034710;28;20647;-82
2022/01/12 13:15:11;;;;;;;12.60;8.02;;;;;;;0.23;66.45;95924.97;5034575;28;20265;-82
2022/01/12 13:17:40;;;;;;;8.55;5.60;;;;;;;0.20;65.71;95919.88;5034029;28;20669;-81
2022/01/12 13:23:03;;;;;;;19.63;10.95;;;;;;;0.28;66.98;95923.09;5034569;28;20218;-82
2022/01/12 13:25:31;;;;;;;9.05;6.28;;;;;;;0.23;66.35;95924.97;5034505;28;20207;-82
2022/01/12 13:28:00;;;;;;;9.23;6.80;;;;;;;0.32;66.27;95934.22;5034837;28;20187;-82
2022/01/12 13:30:31;;;;;;;15.75;7.55;;;;;;;0.31;67.71;95941.09;5034832;28;20253;-82
2022/01/12 13:33:00;;;;;;;19.67;8.48;;;;;;;0.22;67.37;95942.19;5034635;28;20196;-82
2022/01/12 13:35:29;;;;;;;14.90;7.40;;;;;;;0.20;67.28;95943.13;5034623;28;20204;-82
2022/01/12 13:37:58;;;;;;;14.75;9.48;;;;;;;0.11;66.93;95939.06;5034374;28;20551;-82
2022/01/12 13:40:32;;;;;;;11.00;7.18;;;;;;;0.21;66.76;95937.06;5034738;28;20202;-82
2022/01/12 13:43:00;;;;;;;14.57;7.70;;;;;;;0.22;66.71;95937.03;4999600;28;20223;-82
2022/01/12 13:45:37;;;;;;;19.35;9.80;;;;;;;0.25;66.66;95943.81;5017838;28;20243;-82
2022/01/12 13:48:12;;;;;;;14.43;8.25;;;;;;;0.25;66.37;95946.41;5015575;28;20241;-82
2022/01/12 13:50:40;;;;;;;15.93;9.32;;;;;;;0.34;66.63;95953.06;5014733;28;20269;-82
2022/01/12 13:53:07;;;;;;;11.93;7.90;;;;;;;0.10;66.25;95955.44;5014266;28;20202;-82
2022/01/12 13:55:35;;;;;;;9.63;6.75;;;;;;;-0.02;66.18;95959.16;5014611;28;20208;-83
2022/01/12 13:58:06;;;;;;;11.77;7.85;;;;;;;-0.14;66.64;95950.91;5014218;28;20578;-81
2022/01/12 14:00:36;;;;;;;9.52;6.35;;;;;;;-0.12;67.23;95959.47;4980783;28;20214;-82
2022/01/12 14:06:53;;;;;;;12.55;6.72;;;;;;;-0.31;68.45;95957.34;5033819;28;20199;-81
2022/01/12 14:09:28;;;;;;;11.98;6.88;;;;;;;-0.45;68.84;95964.59;5033657;28;20222;-81
2022/01/12 14:11:56;;;;;;;21.55;10.52;;;;;;;-0.54;69.55;95969.13;5033858;28;20198;-81
2022/01/12 14:14:53;;;;;;;11.30;7.05;;;;;;;-0.68;69.89;95975.44;5033759;28;20192;-81
2022/01/12 14:17:26;;;;;;;19.35;12.25;;;;;;;-0.67;71.04;95972.00;4960052;28;20208;-82
2022/01/12 14:19:54;;;;;;;15.95;9.27;;;;;;;-0.72;70.17;95975.56;4992187;28;20216;-80
2022/01/12 14:22:21;;;;;;;19.30;11.25;;;;;;;-0.75;70.84;95978.22;4992136;28;20225;-80
2022/01/12 14:28:12;;;;;;;15.93;11.82;;;;;;;-0.85;70.99;95979.31;4991074;28;20225;-79
2022/01/12 14:30:42;;;;;;;19.80;13.05;;;;;;;-0.87;70.97;95981.91;4991680;28;20206;-80
2022/01/12 14:33:11;;;;;;;19.75;10.70;;;;;;;-1.02;71.08;95984.84;4992182;28;20564;-80